sensor_id;sensor_type;location;lat;lon;timestamp;pressure;altitude;pressure_sealevel;temperature
71081;BMP180;58740;50.672;18.690;2022-10-22T00:01:07;98762.40;;;10.60
71081;BMP180;58740;50.672;18.690;2022-10-22T00:03:38;98755.00;;;10.60
71081;BMP180;58740;50.672;18.690;2022-10-22T00:06:06;98750.00;;;10.60
71081;BMP180;58740;50.672;18.690;2022-10-22T00:08:33;98750.80;;;10.60
71081;BMP180;58740;50.672;18.690;2022-10-22T00:11:21;98744.20;;;10.60
71081;BMP180;58740;50.672;18.690;2022-10-22T00:13:49;98736.60;;;10.60
71081;BMP180;58740;50.672;18.690;2022-10-22T00:16:17;98734.40;;;10.60
71081;BMP180;58740;50.672;18.690;2022-10-22T00:18:45;98734.40;;;10.60
71081;BMP180;58740;50.672;18.690;2022-10-22T00:21:12;98734.60;;;10.60
71081;BMP180;58740;50.672;18.690;2022-10-22T00:23:42;98744.60;;;10.60
71081;BMP180;58740;50.672;18.690;2022-10-22T00:26:10;98755.80;;;10.60
71081;BMP180;58740;50.672;18.690;2022-10-22T00:28:38;98749.00;;;10.52
71081;BMP180;58740;50.672;18.690;2022-10-22T00:31:06;98746.80;;;10.50
71081;BMP180;58740;50.672;18.690;2022-10-22T00:33:34;98754.40;;;10.50
71081;BMP180;58740;50.672;18.690;2022-10-22T00:36:01;98753.80;;;10.48
71081;BMP180;58740;50.672;18.690;2022-10-22T00:38:29;98749.80;;;10.48
71081;BMP180;58740;50.672;18.690;2022-10-22T00:40:56;98755.80;;;10.50
71081;BMP180;58740;50.672;18.690;2022-10-22T00:43:26;98753.60;;;10.50
71081;BMP180;58740;50.672;18.690;2022-10-22T00:45:54;98754.20;;;10.50
71081;BMP180;58740;50.672;18.690;2022-10-22T00:48:27;98758.40;;;10.50
71081;BMP180;58740;50.672;18.690;2022-10-22T00:50:58;98753.40;;;10.50
71081;BMP180;58740;50.672;18.690;2022-10-22T00:53:39;98754.80;;;10.50
71081;BMP180;58740;50.672;18.690;2022-10-22T00:56:09;98753.20;;;10.50
71081;BMP180;58740;50.672;18.690;2022-10-22T00:58:44;98751.80;;;10.50
71081;BMP180;58740;50.672;18.690;2022-10-22T01:01:17;98751.40;;;10.40
71081;BMP180;58740;50.672;18.690;2022-10-22T01:03:47;98745.40;;;10.40
71081;BMP180;58740;50.672;18.690;2022-10-22T01:06:33;98746.00;;;10.40
71081;BMP180;58740;50.672;18.690;2022-10-22T01:09:36;98742.40;;;10.40
71081;BMP180;58740;50.672;18.690;2022-10-22T01:12:41;98748.80;;;10.40
71081;BMP180;58740;50.672;18.690;2022-10-22T01:18:47;98732.20;;;10.40
71081;BMP180;58740;50.672;18.690;2022-10-22T01:21:29;98734.60;;;10.40
71081;BMP180;58740;50.672;18.690;2022-10-22T01:24:25;98732.80;;;10.40
71081;BMP180;58740;50.672;18.690;2022-10-22T01:30:19;98730.40;;;10.40
71081;BMP180;58740;50.672;18.690;2022-10-22T01:33:02;98724.40;;;10.34
71081;BMP180;58740;50.672;18.690;2022-10-22T01:35:36;98727.80;;;10.30
71081;BMP180;58740;50.672;18.690;2022-10-22T01:38:11;98732.80;;;10.30
71081;BMP180;58740;50.672;18.690;2022-10-22T01:40:41;98729.40;;;10.30
71081;BMP180;58740;50.672;18.690;2022-10-22T01:43:10;98730.20;;;10.30
71081;BMP180;58740;50.672;18.690;2022-10-22T01:46:00;98732.40;;;10.40
71081;BMP180;58740;50.672;18.690;2022-10-22T01:51:31;98717.00;;;10.34
71081;BMP180;58740;50.672;18.690;2022-10-22T01:54:27;98721.40;;;10.30
71081;BMP180;58740;50.672;18.690;2022-10-22T02:00:03;98713.80;;;10.30
71081;BMP180;58740;50.672;18.690;2022-10-22T02:05:23;98713.00;;;10.20
71081;BMP180;58740;50.672;18.690;2022-10-22T02:08:00;98707.00;;;10.20
71081;BMP180;58740;50.672;18.690;2022-10-22T02:10:29;98710.40;;;10.20
71081;BMP180;58740;50.672;18.690;2022-10-22T02:13:00;98713.20;;;10.20
71081;BMP180;58740;50.672;18.690;2022-10-22T02:15:30;98715.80;;;10.20
71081;BMP180;58740;50.672;18.690;2022-10-22T02:17:59;98718.60;;;10.20
71081;BMP180;58740;50.672;18.690;2022-10-22T02:20:32;98710.20;;;10.20
71081;BMP180;58740;50.672;18.690;2022-10-22T02:23:02;98716.20;;;10.20
71081;BMP180;58740;50.672;18.690;2022-10-22T02:25:35;98714.40;;;10.18
71081;BMP180;58740;50.672;18.690;2022-10-22T02:28:23;98705.60;;;10.10
71081;BMP180;58740;50.672;18.690;2022-10-22T02:30:59;98705.20;;;10.10
71081;BMP180;58740;50.672;18.690;2022-10-22T02:33:33;98706.00;;;10.10
71081;BMP180;58740;50.672;18.690;2022-10-22T02:36:04;98706.20;;;10.10
71081;BMP180;58740;50.672;18.690;2022-10-22T02:38:34;98697.60;;;10.10
71081;BMP180;58740;50.672;18.690;2022-10-22T02:41:03;98700.40;;;10.10
71081;BMP180;58740;50.672;18.690;2022-10-22T02:43:40;98705.60;;;10.10
71081;BMP180;58740;50.672;18.690;2022-10-22T02:46:10;98710.40;;;10.16
71081;BMP180;58740;50.672;18.690;2022-10-22T02:48:37;98720.60;;;10.10
71081;BMP180;58740;50.672;18.690;2022-10-22T02:51:05;98736.00;;;10.10
71081;BMP180;58740;50.672;18.690;2022-10-22T02:53:33;98744.20;;;10.10
71081;BMP180;58740;50.672;18.690;2022-10-22T02:56:01;98743.60;;;10.10
71081;BMP180;58740;50.672;18.690;2022-10-22T02:58:28;98741.60;;;10.10
71081;BMP180;58740;50.672;18.690;2022-10-22T03:00:56;98743.20;;;10.08
71081;BMP180;58740;50.672;18.690;2022-10-22T03:03:23;98747.20;;;10.10
71081;BMP180;58740;50.672;18.690;2022-10-22T03:05:51;98746.80;;;10.10
71081;BMP180;58740;50.672;18.690;2022-10-22T03:08:19;98737.40;;;10.10
71081;BMP180;58740;50.672;18.690;2022-10-22T03:10:46;98730.00;;;10.10
71081;BMP180;58740;50.672;18.690;2022-10-22T03:13:14;98727.40;;;10.10
71081;BMP180;58740;50.672;18.690;2022-10-22T03:15:42;98734.60;;;10.10
71081;BMP180;58740;50.672;18.690;2022-10-22T03:18:10;98732.40;;;10.10
71081;BMP180;58740;50.672;18.690;2022-10-22T03:20:37;98715.80;;;10.10
71081;BMP180;58740;50.672;18.690;2022-10-22T03:23:05;98711.00;;;10.10
71081;BMP180;58740;50.672;18.690;2022-10-22T03:25:34;98715.60;;;10.08
71081;BMP180;58740;50.672;18.690;2022-10-22T03:28:06;98714.00;;;10.02
71081;BMP180;58740;50.672;18.690;2022-10-22T03:30:35;98718.60;;;10.10
71081;BMP180;58740;50.672;18.690;2022-10-22T03:33:03;98727.20;;;10.10
71081;BMP180;58740;50.672;18.690;2022-10-22T03:35:32;98729.80;;;10.10
71081;BMP180;58740;50.672;18.690;2022-10-22T03:38:00;98730.40;;;10.10
71081;BMP180;58740;50.672;18.690;2022-10-22T03:40:28;98738.80;;;10.10
71081;BMP180;58740;50.672;18.690;2022-10-22T03:42:57;98732.00;;;10.06
71081;BMP180;58740;50.672;18.690;2022-10-22T03:45:25;98733.60;;;10.00
71081;BMP180;58740;50.672;18.690;2022-10-22T03:47:52;98731.00;;;10.00
71081;BMP180;58740;50.672;18.690;2022-10-22T03:50:20;98730.00;;;10.00
71081;BMP180;58740;50.672;18.690;2022-10-22T03:52:48;98730.80;;;10.00
71081;BMP180;58740;50.672;18.690;2022-10-22T03:55:15;98736.80;;;10.00
71081;BMP180;58740;50.672;18.690;2022-10-22T03:57:43;98730.40;;;10.00
71081;BMP180;58740;50.672;18.690;2022-10-22T04:00:11;98735.80;;;10.10
71081;BMP180;58740;50.672;18.690;2022-10-22T04:02:39;98730.40;;;10.10
71081;BMP180;58740;50.672;18.690;2022-10-22T04:05:07;98721.80;;;10.08
71081;BMP180;58740;50.672;18.690;2022-10-22T04:07:35;98705.20;;;10.10
71081;BMP180;58740;50.672;18.690;2022-10-22T04:10:03;98705.80;;;10.00
71081;BMP180;58740;50.672;18.690;2022-10-22T04:12:30;98709.80;;;10.00
71081;BMP180;58740;50.672;18.690;2022-10-22T04:14:58;98712.00;;;10.00
71081;BMP180;58740;50.672;18.690;2022-10-22T04:17:33;98700.60;;;10.00
71081;BMP180;58740;50.672;18.690;2022-10-22T04:20:03;98694.80;;;10.00
71081;BMP180;58740;50.672;18.690;2022-10-22T04:22:35;98699.20;;;10.00
71081;BMP180;58740;50.672;18.690;2022-10-22T04:25:04;98698.00;;;10.00
71081;BMP180;58740;50.672;18.690;2022-10-22T04:27:33;98695.00;;;9.98
71081;BMP180;58740;50.672;18.690;2022-10-22T04:30:03;98695.40;;;9.94
71081;BMP180;58740;50.672;18.690;2022-10-22T04:32:31;98689.20;;;9.90
71081;BMP180;58740;50.672;18.690;2022-10-22T04:34:58;98692.20;;;9.90
71081;BMP180;58740;50.672;18.690;2022-10-22T04:37:26;98693.20;;;9.90
71081;BMP180;58740;50.672;18.690;2022-10-22T04:39:54;98686.00;;;9.90
71081;BMP180;58740;50.672;18.690;2022-10-22T04:42:24;98696.20;;;9.90
71081;BMP180;58740;50.672;18.690;2022-10-22T04:44:52;98688.80;;;9.90
71081;BMP180;58740;50.672;18.690;2022-10-22T04:47:20;98687.40;;;9.90
71081;BMP180;58740;50.672;18.690;2022-10-22T04:49:48;98684.40;;;9.90
71081;BMP180;58740;50.672;18.690;2022-10-22T04:52:15;98685.60;;;9.90
71081;BMP180;58740;50.672;18.690;2022-10-22T04:54:43;98681.60;;;9.90
71081;BMP180;58740;50.672;18.690;2022-10-22T04:57:11;98681.00;;;9.90
71081;BMP180;58740;50.672;18.690;2022-10-22T04:59:39;98680.80;;;9.90
71081;BMP180;58740;50.672;18.690;2022-10-22T05:02:06;98672.40;;;9.90
71081;BMP180;58740;50.672;18.690;2022-10-22T05:04:34;98682.40;;;9.90
71081;BMP180;58740;50.672;18.690;2022-10-22T05:07:02;98684.40;;;9.90
71081;BMP180;58740;50.672;18.690;2022-10-22T05:09:30;98697.00;;;9.90
71081;BMP180;58740;50.672;18.690;2022-10-22T05:11:58;98703.80;;;9.90
71081;BMP180;58740;50.672;18.690;2022-10-22T05:14:25;98697.00;;;9.90
71081;BMP180;58740;50.672;18.690;2022-10-22T05:16:53;98686.40;;;9.94
71081;BMP180;58740;50.672;18.690;2022-10-22T05:19:28;98687.20;;;9.98
71081;BMP180;58740;50.672;18.690;2022-10-22T05:21:59;98690.60;;;9.94
71081;BMP180;58740;50.672;18.690;2022-10-22T05:24:29;98675.20;;;9.90
71081;BMP180;58740;50.672;18.690;2022-10-22T05:26:59;98679.40;;;9.90
71081;BMP180;58740;50.672;18.690;2022-10-22T05:29:26;98693.00;;;9.80
71081;BMP180;58740;50.672;18.690;2022-10-22T05:31:55;98707.40;;;9.80
71081;BMP180;58740;50.672;18.690;2022-10-22T05:34:22;98722.40;;;9.80
71081;BMP180;58740;50.672;18.690;2022-10-22T05:36:50;98720.20;;;9.90
71081;BMP180;58740;50.672;18.690;2022-10-22T05:39:18;98714.20;;;9.90
71081;BMP180;58740;50.672;18.690;2022-10-22T05:41:45;98712.40;;;9.90
71081;BMP180;58740;50.672;18.690;2022-10-22T05:44:14;98717.20;;;9.90
71081;BMP180;58740;50.672;18.690;2022-10-22T05:46:44;98711.40;;;9.90
71081;BMP180;58740;50.672;18.690;2022-10-22T05:49:14;98712.00;;;9.88
71081;BMP180;58740;50.672;18.690;2022-10-22T05:51:43;98709.00;;;9.90
71081;BMP180;58740;50.672;18.690;2022-10-22T05:54:19;98706.20;;;9.84
71081;BMP180;58740;50.672;18.690;2022-10-22T05:56:48;98699.80;;;9.90
71081;BMP180;58740;50.672;18.690;2022-10-22T05:59:16;98697.40;;;9.90
71081;BMP180;58740;50.672;18.690;2022-10-22T06:01:44;98710.40;;;9.90
71081;BMP180;58740;50.672;18.690;2022-10-22T06:04:12;98720.60;;;10.00
71081;BMP180;58740;50.672;18.690;2022-10-22T06:06:44;98725.40;;;10.00
71081;BMP180;58740;50.672;18.690;2022-10-22T06:09:39;98727.60;;;10.10
71081;BMP180;58740;50.672;18.690;2022-10-22T06:12:06;98734.60;;;10.10
71081;BMP180;58740;50.672;18.690;2022-10-22T06:14:37;98733.40;;;10.10
71081;BMP180;58740;50.672;18.690;2022-10-22T06:17:05;98732.00;;;10.14
71081;BMP180;58740;50.672;18.690;2022-10-22T06:19:32;98742.80;;;10.18
71081;BMP180;58740;50.672;18.690;2022-10-22T06:22:00;98756.80;;;10.20
71081;BMP180;58740;50.672;18.690;2022-10-22T06:24:28;98762.80;;;10.30
71081;BMP180;58740;50.672;18.690;2022-10-22T06:26:55;98759.20;;;10.40
71081;BMP180;58740;50.672;18.690;2022-10-22T06:29:23;98773.20;;;10.42
71081;BMP180;58740;50.672;18.690;2022-10-22T06:31:51;98774.80;;;10.50
71081;BMP180;58740;50.672;18.690;2022-10-22T06:34:18;98784.20;;;10.60
71081;BMP180;58740;50.672;18.690;2022-10-22T06:36:46;98780.40;;;10.60
71081;BMP180;58740;50.672;18.690;2022-10-22T06:39:16;98795.80;;;10.60
71081;BMP180;58740;50.672;18.690;2022-10-22T06:41:44;98798.20;;;10.60
71081;BMP180;58740;50.672;18.690;2022-10-22T06:44:16;98792.40;;;10.60
71081;BMP180;58740;50.672;18.690;2022-10-22T06:46:44;98801.60;;;10.60
71081;BMP180;58740;50.672;18.690;2022-10-22T06:49:14;98800.20;;;10.70
71081;BMP180;58740;50.672;18.690;2022-10-22T06:51:42;98788.20;;;10.70
71081;BMP180;58740;50.672;18.690;2022-10-22T06:54:10;98795.20;;;10.80
71081;BMP180;58740;50.672;18.690;2022-10-22T06:56:38;98799.00;;;10.90
71081;BMP180;58740;50.672;18.690;2022-10-22T06:59:05;98784.60;;;10.90
71081;BMP180;58740;50.672;18.690;2022-10-22T07:01:34;98778.40;;;11.00
71081;BMP180;58740;50.672;18.690;2022-10-22T07:04:04;98772.40;;;11.00
71081;BMP180;58740;50.672;18.690;2022-10-22T07:06:32;98779.60;;;11.10
71081;BMP180;58740;50.672;18.690;2022-10-22T07:08:59;98777.20;;;11.10
71081;BMP180;58740;50.672;18.690;2022-10-22T07:11:41;98766.80;;;11.10
71081;BMP180;58740;50.672;18.690;2022-10-22T07:14:10;98768.00;;;11.10
71081;BMP180;58740;50.672;18.690;2022-10-22T07:16:38;98771.20;;;11.16
71081;BMP180;58740;50.672;18.690;2022-10-22T07:19:08;98753.20;;;11.20
71081;BMP180;58740;50.672;18.690;2022-10-22T07:21:36;98750.00;;;11.30
71081;BMP180;58740;50.672;18.690;2022-10-22T07:24:04;98743.40;;;11.30
71081;BMP180;58740;50.672;18.690;2022-10-22T07:26:32;98737.20;;;11.30
71081;BMP180;58740;50.672;18.690;2022-10-22T07:29:00;98753.00;;;11.40
71081;BMP180;58740;50.672;18.690;2022-10-22T07:31:28;98759.60;;;11.40
71081;BMP180;58740;50.672;18.690;2022-10-22T07:33:56;98761.80;;;11.50
71081;BMP180;58740;50.672;18.690;2022-10-22T07:36:24;98767.20;;;11.50
71081;BMP180;58740;50.672;18.690;2022-10-22T07:38:55;98767.20;;;11.60
71081;BMP180;58740;50.672;18.690;2022-10-22T07:41:25;98773.20;;;11.66
71081;BMP180;58740;50.672;18.690;2022-10-22T07:43:54;98781.00;;;11.70
71081;BMP180;58740;50.672;18.690;2022-10-22T07:46:22;98796.80;;;11.80
71081;BMP180;58740;50.672;18.690;2022-10-22T07:48:50;98796.20;;;11.82
71081;BMP180;58740;50.672;18.690;2022-10-22T07:51:18;98776.60;;;11.90
71081;BMP180;58740;50.672;18.690;2022-10-22T07:53:46;98773.60;;;11.90
71081;BMP180;58740;50.672;18.690;2022-10-22T07:56:14;98760.20;;;11.90
71081;BMP180;58740;50.672;18.690;2022-10-22T07:58:42;98778.20;;;11.90
71081;BMP180;58740;50.672;18.690;2022-10-22T08:01:10;98798.00;;;11.90
71081;BMP180;58740;50.672;18.690;2022-10-22T08:03:37;98783.00;;;11.90
71081;BMP180;58740;50.672;18.690;2022-10-22T08:06:05;98780.40;;;11.94
71081;BMP180;58740;50.672;18.690;2022-10-22T08:08:33;98782.40;;;12.00
71081;BMP180;58740;50.672;18.690;2022-10-22T08:11:01;98801.60;;;12.00
71081;BMP180;58740;50.672;18.690;2022-10-22T08:13:29;98805.40;;;12.10
71081;BMP180;58740;50.672;18.690;2022-10-22T08:16:01;98802.80;;;12.10
71081;BMP180;58740;50.672;18.690;2022-10-22T08:18:28;98803.00;;;12.10
71081;BMP180;58740;50.672;18.690;2022-10-22T08:20:57;98799.40;;;12.10
71081;BMP180;58740;50.672;18.690;2022-10-22T08:23:25;98793.60;;;12.10
71081;BMP180;58740;50.672;18.690;2022-10-22T08:25:56;98786.20;;;12.10
71081;BMP180;58740;50.672;18.690;2022-10-22T08:28:25;98788.80;;;12.10
71081;BMP180;58740;50.672;18.690;2022-10-22T08:30:55;98801.00;;;12.10
71081;BMP180;58740;50.672;18.690;2022-10-22T08:33:23;98788.20;;;12.10
71081;BMP180;58740;50.672;18.690;2022-10-22T08:35:51;98796.20;;;12.10
71081;BMP180;58740;50.672;18.690;2022-10-22T08:38:19;98793.80;;;12.10
71081;BMP180;58740;50.672;18.690;2022-10-22T08:40:53;98796.40;;;12.16
71081;BMP180;58740;50.672;18.690;2022-10-22T08:43:39;98797.80;;;12.20
71081;BMP180;58740;50.672;18.690;2022-10-22T08:49:00;98793.80;;;12.20
71081;BMP180;58740;50.672;18.690;2022-10-22T08:51:33;98797.40;;;12.20
71081;BMP180;58740;50.672;18.690;2022-10-22T08:56:53;98798.40;;;12.16
71081;BMP180;58740;50.672;18.690;2022-10-22T08:59:40;98796.60;;;12.20
71081;BMP180;58740;50.672;18.690;2022-10-22T09:05:56;98801.00;;;12.22
71081;BMP180;58740;50.672;18.690;2022-10-22T09:08:25;98805.80;;;12.24
71081;BMP180;58740;50.672;18.690;2022-10-22T09:11:15;98802.60;;;12.30
71081;BMP180;58740;50.672;18.690;2022-10-22T09:13:45;98800.40;;;12.26
71081;BMP180;58740;50.672;18.690;2022-10-22T09:19:24;98822.40;;;12.20
71081;BMP180;58740;50.672;18.690;2022-10-22T09:25:28;98825.80;;;12.28
71081;BMP180;58740;50.672;18.690;2022-10-22T09:27:57;98833.80;;;12.30
71081;BMP180;58740;50.672;18.690;2022-10-22T09:30:29;98833.60;;;12.30
71081;BMP180;58740;50.672;18.690;2022-10-22T09:35:44;98831.40;;;12.30
71081;BMP180;58740;50.672;18.690;2022-10-22T09:38:15;98835.20;;;12.30
71081;BMP180;58740;50.672;18.690;2022-10-22T09:40:49;98837.20;;;12.30
71081;BMP180;58740;50.672;18.690;2022-10-22T09:43:18;98838.40;;;12.30
71081;BMP180;58740;50.672;18.690;2022-10-22T09:45:48;98837.20;;;12.30
71081;BMP180;58740;50.672;18.690;2022-10-22T09:48:32;98835.80;;;12.30
71081;BMP180;58740;50.672;18.690;2022-10-22T09:53:45;98834.80;;;12.30
71081;BMP180;58740;50.672;18.690;2022-10-22T09:56:34;98833.80;;;12.30
71081;BMP180;58740;50.672;18.690;2022-10-22T09:59:02;98834.40;;;12.30
71081;BMP180;58740;50.672;18.690;2022-10-22T10:01:33;98829.00;;;12.30
71081;BMP180;58740;50.672;18.690;2022-10-22T10:04:11;98825.60;;;12.30
71081;BMP180;58740;50.672;18.690;2022-10-22T10:06:43;98818.40;;;12.30
71081;BMP180;58740;50.672;18.690;2022-10-22T10:09:24;98818.60;;;12.30
71081;BMP180;58740;50.672;18.690;2022-10-22T10:15:11;98829.00;;;12.32
71081;BMP180;58740;50.672;18.690;2022-10-22T10:18:21;98824.20;;;12.34
71081;BMP180;58740;50.672;18.690;2022-10-22T10:24:13;98819.80;;;12.30
71081;BMP180;58740;50.672;18.690;2022-10-22T10:27:23;98817.80;;;12.30
71081;BMP180;58740;50.672;18.690;2022-10-22T10:30:14;98815.60;;;12.30
71081;BMP180;58740;50.672;18.690;2022-10-22T10:42:07;98822.80;;;12.38
71081;BMP180;58740;50.672;18.690;2022-10-22T10:44:57;98816.60;;;12.30
71081;BMP180;58740;50.672;18.690;2022-10-22T10:51:19;98825.20;;;12.40
71081;BMP180;58740;50.672;18.690;2022-10-22T10:53:39;98825.00;;;12.40
71081;BMP180;58740;50.672;18.690;2022-10-22T10:56:47;98821.80;;;12.40
71081;BMP180;58740;50.672;18.690;2022-10-22T11:05:51;98803.20;;;12.50
71081;BMP180;58740;50.672;18.690;2022-10-22T11:08:31;98810.00;;;12.50
71081;BMP180;58740;50.672;18.690;2022-10-22T11:12:00;98808.00;;;12.60
71081;BMP180;58740;50.672;18.690;2022-10-22T11:14:29;98808.60;;;12.60
71081;BMP180;58740;50.672;18.690;2022-10-22T11:17:16;98805.20;;;12.60
71081;BMP180;58740;50.672;18.690;2022-10-22T11:20:03;98802.40;;;12.60
71081;BMP180;58740;50.672;18.690;2022-10-22T11:22:43;98803.00;;;12.60
71081;BMP180;58740;50.672;18.690;2022-10-22T11:25:41;98806.60;;;12.60
71081;BMP180;58740;50.672;18.690;2022-10-22T11:28:47;98803.80;;;12.60
71081;BMP180;58740;50.672;18.690;2022-10-22T11:31:17;98808.00;;;12.60
71081;BMP180;58740;50.672;18.690;2022-10-22T11:34:09;98800.60;;;12.64
71081;BMP180;58740;50.672;18.690;2022-10-22T11:36:58;98800.40;;;12.70
71081;BMP180;58740;50.672;18.690;2022-10-22T11:39:41;98787.00;;;12.70
71081;BMP180;58740;50.672;18.690;2022-10-22T11:42:18;98780.40;;;12.70
71081;BMP180;58740;50.672;18.690;2022-10-22T11:45:25;98789.40;;;12.70
71081;BMP180;58740;50.672;18.690;2022-10-22T11:50:58;98788.20;;;12.70
71081;BMP180;58740;50.672;18.690;2022-10-22T11:53:32;98795.60;;;12.70
71081;BMP180;58740;50.672;18.690;2022-10-22T12:06:27;98783.00;;;12.80
71081;BMP180;58740;50.672;18.690;2022-10-22T12:09:00;98786.00;;;12.80
71081;BMP180;58740;50.672;18.690;2022-10-22T12:11:48;98779.60;;;12.90
71081;BMP180;58740;50.672;18.690;2022-10-22T12:14:33;98782.40;;;12.90
71081;BMP180;58740;50.672;18.690;2022-10-22T12:17:09;98778.20;;;12.90
71081;BMP180;58740;50.672;18.690;2022-10-22T12:19:42;98775.80;;;12.92
71081;BMP180;58740;50.672;18.690;2022-10-22T12:22:20;98781.40;;;12.98
71081;BMP180;58740;50.672;18.690;2022-10-22T12:24:55;98782.40;;;13.00
71081;BMP180;58740;50.672;18.690;2022-10-22T12:27:36;98783.80;;;13.00
71081;BMP180;58740;50.672;18.690;2022-10-22T12:30:22;98782.20;;;13.02
71081;BMP180;58740;50.672;18.690;2022-10-22T12:32:53;98774.60;;;13.10
71081;BMP180;58740;50.672;18.690;2022-10-22T12:35:27;98769.00;;;13.10
71081;BMP180;58740;50.672;18.690;2022-10-22T12:38:24;98772.20;;;13.10
71081;BMP180;58740;50.672;18.690;2022-10-22T12:40:55;98777.60;;;13.20
71081;BMP180;58740;50.672;18.690;2022-10-22T12:43:29;98777.00;;;13.20
71081;BMP180;58740;50.672;18.690;2022-10-22T12:45:58;98777.00;;;13.26
71081;BMP180;58740;50.672;18.690;2022-10-22T12:48:30;98771.20;;;13.30
71081;BMP180;58740;50.672;18.690;2022-10-22T12:51:03;98779.20;;;13.36
71081;BMP180;58740;50.672;18.690;2022-10-22T12:53:38;98780.80;;;13.40
71081;BMP180;58740;50.672;18.690;2022-10-22T12:56:13;98775.40;;;13.40
71081;BMP180;58740;50.672;18.690;2022-10-22T12:58:46;98771.40;;;13.40
71081;BMP180;58740;50.672;18.690;2022-10-22T13:01:16;98769.40;;;13.40
71081;BMP180;58740;50.672;18.690;2022-10-22T13:03:49;98766.60;;;13.40
71081;BMP180;58740;50.672;18.690;2022-10-22T13:09:05;98774.20;;;13.50
71081;BMP180;58740;50.672;18.690;2022-10-22T13:12:02;98773.80;;;13.50
71081;BMP180;58740;50.672;18.690;2022-10-22T13:14:34;98779.20;;;13.50
71081;BMP180;58740;50.672;18.690;2022-10-22T13:17:36;98780.60;;;13.50
71081;BMP180;58740;50.672;18.690;2022-10-22T13:20:21;98781.80;;;13.50
71081;BMP180;58740;50.672;18.690;2022-10-22T13:23:00;98777.80;;;13.50
71081;BMP180;58740;50.672;18.690;2022-10-22T13:25:35;98777.00;;;13.50
71081;BMP180;58740;50.672;18.690;2022-10-22T13:30:36;98780.60;;;13.50
71081;BMP180;58740;50.672;18.690;2022-10-22T13:33:18;98784.80;;;13.56
71081;BMP180;58740;50.672;18.690;2022-10-22T13:35:57;98789.80;;;13.50
71081;BMP180;58740;50.672;18.690;2022-10-22T13:38:27;98789.60;;;13.50
71081;BMP180;58740;50.672;18.690;2022-10-22T13:40:55;98795.00;;;13.50
71081;BMP180;58740;50.672;18.690;2022-10-22T13:43:23;98792.60;;;13.60
71081;BMP180;58740;50.672;18.690;2022-10-22T13:45:56;98789.80;;;13.50
71081;BMP180;58740;50.672;18.690;2022-10-22T13:48:27;98790.60;;;13.50
71081;BMP180;58740;50.672;18.690;2022-10-22T13:50:56;98792.20;;;13.50
71081;BMP180;58740;50.672;18.690;2022-10-22T13:53:26;98785.20;;;13.50
71081;BMP180;58740;50.672;18.690;2022-10-22T13:55:54;98793.60;;;13.44
71081;BMP180;58740;50.672;18.690;2022-10-22T13:58:23;98793.40;;;13.42
71081;BMP180;58740;50.672;18.690;2022-10-22T14:00:55;98792.20;;;13.50
71081;BMP180;58740;50.672;18.690;2022-10-22T14:03:30;98790.00;;;13.50
71081;BMP180;58740;50.672;18.690;2022-10-22T14:05:59;98800.00;;;13.50
71081;BMP180;58740;50.672;18.690;2022-10-22T14:08:27;98799.60;;;13.52
71081;BMP180;58740;50.672;18.690;2022-10-22T14:10:55;98798.60;;;13.52
71081;BMP180;58740;50.672;18.690;2022-10-22T14:13:23;98803.80;;;13.50
71081;BMP180;58740;50.672;18.690;2022-10-22T14:15:51;98804.60;;;13.50
71081;BMP180;58740;50.672;18.690;2022-10-22T14:18:25;98806.40;;;13.50
71081;BMP180;58740;50.672;18.690;2022-10-22T14:20:58;98810.20;;;13.50
71081;BMP180;58740;50.672;18.690;2022-10-22T14:23:29;98804.20;;;13.50
71081;BMP180;58740;50.672;18.690;2022-10-22T14:25:58;98795.60;;;13.50
71081;BMP180;58740;50.672;18.690;2022-10-22T14:28:31;98798.80;;;13.50
71081;BMP180;58740;50.672;18.690;2022-10-22T14:31:13;98794.60;;;13.50
71081;BMP180;58740;50.672;18.690;2022-10-22T14:33:41;98795.40;;;13.50
71081;BMP180;58740;50.672;18.690;2022-10-22T14:36:13;98792.20;;;13.50
71081;BMP180;58740;50.672;18.690;2022-10-22T14:38:44;98786.80;;;13.58
71081;BMP180;58740;50.672;18.690;2022-10-22T14:41:27;98787.40;;;13.50
71081;BMP180;58740;50.672;18.690;2022-10-22T14:43:55;98793.20;;;13.48
71081;BMP180;58740;50.672;18.690;2022-10-22T14:46:22;98792.80;;;13.40
71081;BMP180;58740;50.672;18.690;2022-10-22T14:48:50;98794.40;;;13.40
71081;BMP180;58740;50.672;18.690;2022-10-22T14:51:20;98787.80;;;13.40
71081;BMP180;58740;50.672;18.690;2022-10-22T14:53:48;98789.00;;;13.40
71081;BMP180;58740;50.672;18.690;2022-10-22T14:56:18;98787.80;;;13.40
71081;BMP180;58740;50.672;18.690;2022-10-22T14:58:49;98793.20;;;13.40
71081;BMP180;58740;50.672;18.690;2022-10-22T15:01:17;98796.80;;;13.40
71081;BMP180;58740;50.672;18.690;2022-10-22T15:03:44;98800.00;;;13.40
71081;BMP180;58740;50.672;18.690;2022-10-22T15:06:12;98800.80;;;13.40
71081;BMP180;58740;50.672;18.690;2022-10-22T15:08:40;98798.00;;;13.30
71081;BMP180;58740;50.672;18.690;2022-10-22T15:11:11;98800.20;;;13.30
71081;BMP180;58740;50.672;18.690;2022-10-22T15:13:39;98793.20;;;13.40
71081;BMP180;58740;50.672;18.690;2022-10-22T15:16:12;98796.40;;;13.30
71081;BMP180;58740;50.672;18.690;2022-10-22T15:18:41;98790.60;;;13.30
71081;BMP180;58740;50.672;18.690;2022-10-22T15:21:18;98791.80;;;13.30
71081;BMP180;58740;50.672;18.690;2022-10-22T15:23:46;98797.00;;;13.20
71081;BMP180;58740;50.672;18.690;2022-10-22T15:26:14;98794.00;;;13.20
71081;BMP180;58740;50.672;18.690;2022-10-22T15:28:43;98799.60;;;13.20
71081;BMP180;58740;50.672;18.690;2022-10-22T15:31:13;98804.80;;;13.20
71081;BMP180;58740;50.672;18.690;2022-10-22T15:33:42;98803.20;;;13.20
71081;BMP180;58740;50.672;18.690;2022-10-22T15:36:14;98806.20;;;13.20
71081;BMP180;58740;50.672;18.690;2022-10-22T15:38:42;98816.00;;;13.20
71081;BMP180;58740;50.672;18.690;2022-10-22T15:41:11;98820.40;;;13.20
71081;BMP180;58740;50.672;18.690;2022-10-22T15:43:39;98820.80;;;13.20
71081;BMP180;58740;50.672;18.690;2022-10-22T15:46:17;98825.80;;;13.20
71081;BMP180;58740;50.672;18.690;2022-10-22T15:48:45;98831.60;;;13.20
71081;BMP180;58740;50.672;18.690;2022-10-22T15:51:16;98832.60;;;13.20